createdAt,value
2018-10-21T00:00:39.228Z,6.11
2018-10-21T00:03:09.288Z,6.31
2018-10-21T00:05:38.324Z,6.13
2018-10-21T00:08:12.831Z,6.00
2018-10-21T00:10:42.620Z,5.79
2018-10-21T00:13:11.493Z,5.72
2018-10-21T00:15:41.347Z,5.97
2018-10-21T00:18:11.421Z,5.62
2018-10-21T00:20:41.352Z,5.57
2018-10-21T00:23:11.357Z,5.68
2018-10-21T00:25:40.776Z,6.02
2018-10-21T00:28:10.801Z,6.16
2018-10-21T00:30:39.560Z,5.72
2018-10-21T00:33:09.726Z,5.88
2018-10-21T00:35:38.325Z,5.33
2018-10-21T00:38:08.290Z,5.36
2018-10-21T00:40:38.528Z,5.78
2018-10-21T00:43:07.857Z,5.80
2018-10-21T00:45:37.126Z,5.82
2018-10-21T00:48:05.946Z,5.96
2018-10-21T00:50:34.508Z,5.50
2018-10-21T00:53:03.264Z,5.43
2018-10-21T00:55:32.748Z,5.67
2018-10-21T00:58:03.052Z,5.89
2018-10-21T01:00:32.472Z,5.76
2018-10-21T01:03:01.413Z,5.75
2018-10-21T01:05:35.491Z,5.82
2018-10-21T01:08:08.357Z,6.02
2018-10-21T01:10:38.435Z,5.85
2018-10-21T01:13:07.193Z,5.58
2018-10-21T01:15:37.389Z,5.48
2018-10-21T01:18:07.429Z,5.50
2018-10-21T01:20:37.916Z,5.50
2018-10-21T01:23:07.105Z,4.55
2018-10-21T01:25:36.389Z,4.52
2018-10-21T01:28:05.188Z,4.94
2018-10-21T01:30:34.615Z,4.92
2018-10-21T01:33:03.600Z,4.76
2018-10-21T01:35:33.156Z,5.09
2018-10-21T01:38:02.613Z,4.89
2018-10-21T01:40:35.277Z,4.88
2018-10-21T01:43:04.589Z,5.16
2018-10-21T01:45:35.566Z,4.90
2018-10-21T01:48:06.791Z,5.05
2018-10-21T01:50:36.557Z,4.70
2018-10-21T01:53:08.843Z,4.48
2018-10-21T01:55:38.263Z,4.38
2018-10-21T01:58:08.278Z,4.86
2018-10-21T02:00:40.030Z,5.40
2018-10-21T02:03:08.616Z,5.29
2018-10-21T02:05:37.635Z,5.17
2018-10-21T02:08:06.452Z,5.16
2018-10-21T02:10:35.013Z,5.07
2018-10-21T02:13:03.622Z,4.94
2018-10-21T02:15:32.184Z,5.14
2018-10-21T02:18:00.713Z,4.99
2018-10-21T02:20:29.348Z,4.25
2018-10-21T02:22:57.921Z,3.66
2018-10-21T02:25:26.495Z,4.06
2018-10-21T02:27:55.152Z,4.49
2018-10-21T02:30:28.648Z,4.63
2018-10-21T02:32:58.071Z,4.32
2018-10-21T02:35:26.628Z,4.11
2018-10-21T02:37:55.649Z,4.00
2018-10-21T02:41:38.446Z,4.41
2018-10-21T02:44:16.913Z,4.00
2018-10-21T02:46:46.112Z,4.01
2018-10-21T02:49:15.378Z,3.76
2018-10-21T02:51:44.068Z,4.08
2018-10-21T02:54:12.613Z,4.15
2018-10-21T02:56:41.187Z,4.13
2018-10-21T02:59:09.712Z,3.86
2018-10-21T03:01:38.293Z,3.79
2018-10-21T03:04:06.817Z,3.41
2018-10-21T03:06:35.700Z,3.65
2018-10-21T03:09:05.760Z,3.61
2018-10-21T03:11:34.278Z,3.80
2018-10-21T03:14:02.927Z,4.03
2018-10-21T03:16:31.513Z,3.93
2018-10-21T03:19:00.053Z,3.66
2018-10-21T03:21:28.649Z,3.53
2018-10-21T03:23:57.178Z,3.87
2018-10-21T03:26:25.821Z,4.36
2018-10-21T03:28:54.340Z,4.22
2018-10-21T03:31:22.911Z,3.72
2018-10-21T03:33:51.905Z,3.94
2018-10-21T03:36:20.498Z,3.72
2018-10-21T03:38:49.021Z,4.09
2018-10-21T03:41:17.571Z,4.36
2018-10-21T03:43:46.090Z,4.44
2018-10-21T03:46:15.605Z,4.27
2018-10-21T03:48:44.201Z,3.83
2018-10-21T03:51:13.383Z,3.72
2018-10-21T03:53:42.128Z,3.86
2018-10-21T03:56:10.787Z,3.76
2018-10-21T03:58:39.635Z,3.90
2018-10-21T04:01:08.912Z,3.31
2018-10-21T04:03:37.486Z,3.51
2018-10-21T04:06:06.159Z,3.72
2018-10-21T04:08:34.709Z,3.56
2018-10-21T04:11:03.266Z,3.47
2018-10-21T04:13:31.787Z,3.31
2018-10-21T04:16:00.414Z,3.35
2018-10-21T04:18:28.912Z,3.72
2018-10-21T04:20:57.501Z,3.49
2018-10-21T04:23:26.029Z,3.65
2018-10-21T04:25:55.081Z,3.25
2018-10-21T04:28:23.607Z,3.41
2018-10-21T04:30:52.168Z,3.62
2018-10-21T04:36:17.660Z,4.00
2018-10-21T04:40:08.559Z,3.98
2018-10-21T04:42:37.094Z,3.60
2018-10-21T04:45:06.273Z,3.60
2018-10-21T04:47:34.844Z,3.89
2018-10-21T04:50:03.394Z,3.80
2018-10-21T04:52:32.793Z,3.98
2018-10-21T04:55:06.538Z,3.66
2018-10-21T04:57:35.957Z,3.67
2018-10-21T05:00:05.364Z,3.60
2018-10-21T05:02:33.925Z,4.01
2018-10-21T05:05:02.492Z,4.07
2018-10-21T05:07:31.261Z,4.04
2018-10-21T05:09:59.811Z,4.05
2018-10-21T05:12:28.374Z,3.58
2018-10-21T05:14:56.900Z,3.54
2018-10-21T05:17:25.497Z,3.09
2018-10-21T05:19:54.042Z,3.46
2018-10-21T05:22:22.601Z,3.07
2018-10-21T05:24:51.137Z,3.51
2018-10-21T05:27:19.709Z,4.02
2018-10-21T05:29:48.239Z,3.76
2018-10-21T05:32:16.795Z,3.81
2018-10-21T05:34:45.326Z,3.82
2018-10-21T05:37:13.891Z,3.44
2018-10-21T05:39:42.410Z,3.66
2018-10-21T05:42:11.496Z,3.55
2018-10-21T05:44:40.393Z,3.41
2018-10-21T05:47:10.060Z,3.42
2018-10-21T05:49:38.748Z,3.56
2018-10-21T05:52:07.708Z,3.51
2018-10-21T05:54:40.383Z,3.35
2018-10-21T05:57:08.949Z,3.06
2018-10-21T05:59:37.541Z,2.48
2018-10-21T06:02:06.239Z,2.54
2018-10-21T06:04:34.774Z,3.07
2018-10-21T06:07:03.381Z,3.37
2018-10-21T06:09:31.905Z,3.33
2018-10-21T06:12:00.458Z,3.30
2018-10-21T06:14:29.033Z,2.84
2018-10-21T06:17:14.056Z,3.00
2018-10-21T06:19:45.995Z,3.16
2018-10-21T06:22:16.289Z,3.05
2018-10-21T06:24:49.029Z,3.31
2018-10-21T06:27:18.019Z,3.33
2018-10-21T06:29:46.568Z,3.40
2018-10-21T06:32:15.217Z,3.35
2018-10-21T06:34:43.772Z,3.61
2018-10-21T06:37:14.237Z,3.77
2018-10-21T06:39:42.935Z,4.03
2018-10-21T06:42:11.467Z,3.87
2018-10-21T06:44:40.573Z,4.13
2018-10-21T06:47:09.809Z,4.29
2018-10-21T06:49:38.629Z,4.31
2018-10-21T06:52:14.469Z,4.21
2018-10-21T06:54:43.285Z,4.25
2018-10-21T06:57:11.945Z,4.27
2018-10-21T06:59:40.428Z,4.56
2018-10-21T07:02:10.673Z,4.65
2018-10-21T07:04:39.313Z,4.55
2018-10-21T07:07:07.809Z,4.59
2018-10-21T07:09:37.349Z,4.77
2018-10-21T07:12:06.626Z,4.80
2018-10-21T07:14:35.297Z,4.94
2018-10-21T07:17:04.129Z,4.95
2018-10-21T07:19:32.979Z,4.99
2018-10-21T07:22:01.569Z,5.06
2018-10-21T07:24:30.128Z,5.24
2018-10-21T07:26:58.696Z,5.36
2018-10-21T07:29:27.381Z,5.42
2018-10-21T07:31:56.165Z,5.58
2018-10-21T07:34:24.752Z,5.54
2018-10-21T07:36:54.805Z,5.58
2018-10-21T07:39:23.827Z,5.68
2018-10-21T07:41:52.494Z,5.91
2018-10-21T07:44:21.071Z,6.01
2018-10-21T07:46:50.340Z,6.17
2018-10-21T07:49:18.998Z,6.30
2018-10-21T07:51:48.073Z,6.32
2018-10-21T07:54:16.976Z,6.43
2018-10-21T07:56:45.576Z,6.49
2018-10-21T07:59:14.814Z,6.70
2018-10-21T08:01:43.441Z,6.94
2018-10-21T08:04:12.254Z,7.08
2018-10-21T08:06:52.429Z,7.24
2018-10-21T08:09:21.105Z,7.36
2018-10-21T08:11:49.641Z,7.50
2018-10-21T08:14:18.206Z,7.55
2018-10-21T08:16:46.728Z,7.75
2018-10-21T08:19:15.293Z,7.88
2018-10-21T08:21:43.856Z,8.03
2018-10-21T08:24:12.428Z,8.11
2018-10-21T08:26:40.968Z,8.23
2018-10-21T08:29:09.545Z,8.41
2018-10-21T08:31:38.076Z,8.47
2018-10-21T08:34:06.620Z,8.55
2018-10-21T08:36:35.181Z,8.65
2018-10-21T08:39:05.893Z,8.67
2018-10-21T08:41:34.453Z,8.88
2018-10-21T08:44:02.984Z,8.96
2018-10-21T08:46:32.270Z,9.04
2018-10-21T08:49:01.131Z,8.99
2018-10-21T08:51:30.149Z,9.12
2018-10-21T08:53:59.709Z,9.22
2018-10-21T08:56:30.382Z,9.35
2018-10-21T08:58:59.717Z,9.36
2018-10-21T09:01:28.715Z,9.43
2018-10-21T09:03:57.304Z,9.56
2018-10-21T09:06:25.972Z,9.63
2018-10-21T09:08:54.513Z,9.80
2018-10-21T09:11:23.801Z,9.85
2018-10-21T09:13:52.489Z,10.02
2018-10-21T09:16:22.452Z,10.15
2018-10-21T09:18:51.177Z,10.21
2018-10-21T09:21:20.917Z,10.23
2018-10-21T09:23:49.546Z,10.42
2018-10-21T09:26:18.801Z,10.56
2018-10-21T09:28:48.320Z,10.65
2018-10-21T09:31:17.323Z,10.64
2018-10-21T09:33:46.133Z,10.72
2018-10-21T09:36:14.776Z,10.79
2018-10-21T09:38:43.519Z,10.95
2018-10-21T09:41:12.265Z,10.99
2018-10-21T09:43:42.525Z,11.09
2018-10-21T09:46:11.872Z,11.36
2018-10-21T09:48:41.064Z,11.36
2018-10-21T09:51:09.632Z,11.33
2018-10-21T09:53:38.212Z,11.38
2018-10-21T09:56:06.823Z,11.55
2018-10-21T09:58:36.274Z,11.67
2018-10-21T10:01:10.098Z,11.76
2018-10-21T10:03:38.848Z,11.85
2018-10-21T10:06:08.437Z,11.91
2018-10-21T10:08:37.252Z,12.00
2018-10-21T10:11:12.611Z,12.27
2018-10-21T10:13:41.632Z,12.25
2018-10-21T10:16:10.396Z,12.25
2018-10-21T10:18:39.572Z,12.39
2018-10-21T10:21:08.236Z,12.56
2018-10-21T10:23:36.870Z,12.57
2018-10-21T10:26:06.872Z,12.71
2018-10-21T10:28:35.412Z,12.76
2018-10-21T10:31:04.363Z,12.96
2018-10-21T10:33:32.831Z,12.98
2018-10-21T10:36:03.983Z,12.91
2018-10-21T10:38:32.681Z,13.03
2018-10-21T10:41:01.201Z,13.06
2018-10-21T10:43:30.936Z,13.16
2018-10-21T10:45:59.753Z,13.15
2018-10-21T10:48:28.604Z,13.18
2018-10-21T10:50:57.359Z,13.18
2018-10-21T10:53:25.993Z,13.30
2018-10-21T10:55:55.543Z,13.35
2018-10-21T10:58:24.819Z,13.39
2018-10-21T11:00:53.433Z,13.66
2018-10-21T11:03:21.988Z,13.76
2018-10-21T11:05:51.272Z,13.63
2018-10-21T11:08:21.335Z,13.64
2018-10-21T11:10:50.101Z,13.70
2018-10-21T11:13:19.176Z,13.92
2018-10-21T11:15:49.205Z,13.97
2018-10-21T11:18:17.773Z,14.16
2018-10-21T11:20:46.496Z,14.16
2018-10-21T11:23:15.102Z,14.15
2018-10-21T11:25:45.359Z,14.30
2018-10-21T11:28:13.960Z,14.44
2018-10-21T11:30:42.488Z,14.45
2018-10-21T11:33:11.076Z,14.40
2018-10-21T11:35:39.665Z,14.58
2018-10-21T11:38:08.261Z,14.62
2018-10-21T11:40:36.808Z,14.71
2018-10-21T11:43:05.627Z,14.77
2018-10-21T11:45:34.204Z,14.91
2018-10-21T11:48:04.724Z,14.84
2018-10-21T11:50:33.392Z,15.04
2018-10-21T11:53:03.005Z,14.98
2018-10-21T11:55:37.461Z,14.99
2018-10-21T11:58:11.352Z,14.96
2018-10-21T12:01:01.706Z,15.08
2018-10-21T12:03:36.015Z,15.14
2018-10-21T12:06:05.105Z,15.31
2018-10-21T12:08:33.667Z,15.27
2018-10-21T12:11:10.474Z,15.33
2018-10-21T12:13:39.211Z,15.44
2018-10-21T12:16:07.763Z,15.39
2018-10-21T12:18:50.733Z,15.49
2018-10-21T12:21:19.600Z,15.62
2018-10-21T12:23:48.157Z,15.44
2018-10-21T12:26:16.709Z,15.49
2018-10-21T12:28:47.414Z,15.59
2018-10-21T12:31:16.556Z,15.68
2018-10-21T12:33:45.435Z,15.66
2018-10-21T12:36:15.757Z,15.77
2018-10-21T12:38:44.361Z,15.79
2018-10-21T12:41:13.498Z,15.91
2018-10-21T12:43:42.541Z,16.03
2018-10-21T12:46:12.373Z,16.08
2018-10-21T12:48:42.075Z,16.01
2018-10-21T12:51:12.893Z,16.08
2018-10-21T12:53:41.631Z,16.01
2018-10-21T12:56:10.572Z,16.21
2018-10-21T12:58:39.887Z,16.23
2018-10-21T13:01:08.908Z,16.30
2018-10-21T13:03:38.657Z,16.40
2018-10-21T13:06:07.306Z,16.36
2018-10-21T13:08:36.772Z,16.36
2018-10-21T13:11:05.458Z,16.34
2018-10-21T13:13:34.341Z,16.33
2018-10-21T13:16:02.972Z,16.36
2018-10-21T13:18:31.521Z,16.53
2018-10-21T13:21:00.135Z,16.44
2018-10-21T13:23:28.701Z,16.46
2018-10-21T13:25:59.175Z,16.74
2018-10-21T13:28:27.945Z,16.74
2018-10-21T13:30:56.305Z,16.80
2018-10-21T13:33:24.878Z,16.53
2018-10-21T13:35:53.435Z,16.62
2018-10-21T13:38:21.975Z,16.60
2018-10-21T13:40:50.561Z,16.77
2018-10-21T13:43:19.998Z,16.85
2018-10-21T13:45:48.638Z,16.88
2018-10-21T13:48:17.129Z,16.70
2018-10-21T13:50:45.688Z,16.61
2018-10-21T13:53:14.278Z,16.71
2018-10-21T13:55:42.837Z,16.75
2018-10-21T13:58:11.423Z,16.91
2018-10-21T14:00:40.011Z,16.95
2018-10-21T14:03:09.478Z,17.14
2018-10-21T14:05:38.053Z,17.40
2018-10-21T14:08:07.072Z,17.27
2018-10-21T14:10:35.633Z,17.36
2018-10-21T14:13:06.772Z,17.39
2018-10-21T14:15:35.446Z,17.53
2018-10-21T14:18:04.031Z,17.56
2018-10-21T14:20:32.629Z,17.74
2018-10-21T14:23:01.160Z,18.05
2018-10-21T14:25:29.709Z,17.95
2018-10-21T14:27:58.656Z,18.30
2018-10-21T14:30:27.951Z,18.32
2018-10-21T14:32:56.511Z,18.60
2018-10-21T14:35:25.126Z,18.69
2018-10-21T14:37:54.744Z,18.94
2018-10-21T14:40:28.221Z,19.31
2018-10-21T14:43:01.087Z,19.61
2018-10-21T14:48:25.696Z,19.75
2018-10-21T14:51:19.562Z,20.30
2018-10-21T14:54:20.981Z,20.10
2018-10-21T14:57:09.378Z,20.28
2018-10-21T15:00:03.388Z,20.58
2018-10-21T15:02:36.393Z,20.63
2018-10-21T15:05:26.496Z,20.86
2018-10-21T15:08:04.009Z,19.93
2018-10-21T15:10:43.129Z,20.45
2018-10-21T15:13:24.073Z,20.06
2018-10-21T15:15:53.545Z,19.60
2018-10-21T15:18:22.293Z,19.82
2018-10-21T15:20:50.886Z,19.60
2018-10-21T15:23:19.495Z,19.31
2018-10-21T15:25:48.009Z,18.81
2018-10-21T15:28:16.661Z,18.55
2018-10-21T15:30:45.161Z,18.25
2018-10-21T15:33:13.680Z,18.20
2018-10-21T15:35:42.230Z,18.14
2018-10-21T15:38:10.816Z,17.77
2018-10-21T15:40:39.333Z,17.66
2018-10-21T15:43:07.866Z,17.68
2018-10-21T15:45:36.570Z,17.53
2018-10-21T15:48:05.268Z,17.44
2018-10-21T15:50:34.340Z,17.38
2018-10-21T15:53:03.024Z,17.23
2018-10-21T15:55:31.641Z,17.04
2018-10-21T15:58:03.308Z,16.87
2018-10-21T16:00:31.860Z,16.81
2018-10-21T16:03:00.413Z,16.70
2018-10-21T16:05:29.268Z,16.51
2018-10-21T16:07:57.865Z,16.51
2018-10-21T16:10:26.358Z,16.37
2018-10-21T16:12:55.026Z,16.20
2018-10-21T16:15:23.551Z,16.05
2018-10-21T16:17:52.121Z,15.85
2018-10-21T16:20:20.637Z,15.61
2018-10-21T16:22:49.404Z,15.37
2018-10-21T16:25:18.230Z,15.26
2018-10-21T16:27:46.838Z,14.74
2018-10-21T16:30:16.616Z,14.46
2018-10-21T16:32:45.663Z,14.41
2018-10-21T16:35:14.520Z,14.45
2018-10-21T16:37:43.553Z,14.26
2018-10-21T16:40:15.034Z,14.15
2018-10-21T16:42:43.958Z,13.64
2018-10-21T16:45:13.504Z,13.62
2018-10-21T16:47:42.165Z,13.48
2018-10-21T16:50:16.438Z,13.61
2018-10-21T16:52:46.371Z,13.23
2018-10-21T16:55:17.388Z,12.73
2018-10-21T16:57:47.307Z,12.46
2018-10-21T17:00:20.232Z,11.99
2018-10-21T17:02:48.893Z,12.19
2018-10-21T17:05:17.488Z,11.40
2018-10-21T17:07:46.043Z,11.54
2018-10-21T17:10:14.915Z,11.54
2018-10-21T17:12:43.160Z,11.43
2018-10-21T17:15:12.231Z,11.76
2018-10-21T17:17:41.500Z,11.79
2018-10-21T17:20:11.807Z,11.56
2018-10-21T17:22:41.189Z,11.71
2018-10-21T17:25:09.819Z,11.40
2018-10-21T17:27:38.385Z,11.30
2018-10-21T17:30:09.702Z,10.90
2018-10-21T17:32:38.360Z,10.65
2018-10-21T17:35:07.709Z,10.51
2018-10-21T17:37:36.265Z,10.13
2018-10-21T17:40:04.922Z,9.77
2018-10-21T17:42:35.725Z,9.89
2018-10-21T17:45:10.872Z,9.89
2018-10-21T17:47:39.644Z,9.84
2018-10-21T17:50:11.636Z,9.65
2018-10-21T17:52:41.945Z,10.21
2018-10-21T17:55:10.554Z,10.05
2018-10-21T17:57:39.245Z,9.97
2018-10-21T18:00:09.503Z,10.21
2018-10-21T18:02:38.631Z,9.48
2018-10-21T18:05:11.945Z,8.97
2018-10-21T18:07:41.094Z,9.05
2018-10-21T18:10:10.060Z,9.31
2018-10-21T18:12:38.741Z,9.35
2018-10-21T18:15:08.252Z,9.46
2018-10-21T18:17:38.266Z,9.49
2018-10-21T18:20:08.257Z,9.67
2018-10-21T18:22:36.834Z,9.79
2018-10-21T18:25:05.851Z,9.76
2018-10-21T18:27:34.444Z,9.71
2018-10-21T18:30:03.345Z,9.21
2018-10-21T18:32:32.031Z,8.58
2018-10-21T18:35:00.920Z,8.24
2018-10-21T18:37:29.565Z,8.16
2018-10-21T18:39:58.286Z,7.92
2018-10-21T18:42:26.855Z,7.93
2018-10-21T18:44:55.653Z,7.78
2018-10-21T18:47:27.678Z,8.05
2018-10-21T18:49:56.316Z,7.94
2018-10-21T18:52:26.065Z,7.94
2018-10-21T18:54:55.496Z,8.43
2018-10-21T18:57:24.053Z,8.83
2018-10-21T18:59:52.638Z,8.83
2018-10-21T19:02:23.189Z,8.55
2018-10-21T19:04:53.765Z,8.40
2018-10-21T19:07:24.027Z,8.35
2018-10-21T19:09:52.668Z,8.05
2018-10-21T19:12:25.957Z,7.83
2018-10-21T19:15:01.375Z,8.01
2018-10-21T19:17:33.144Z,8.04
2018-10-21T19:20:01.717Z,8.06
2018-10-21T19:22:30.853Z,8.01
2018-10-21T19:24:59.433Z,7.77
2018-10-21T19:27:27.955Z,7.34
2018-10-21T19:29:56.519Z,7.15
2018-10-21T19:32:25.068Z,7.17
2018-10-21T19:34:53.693Z,7.82
2018-10-21T19:37:22.630Z,7.91
2018-10-21T19:39:51.393Z,7.96
2018-10-21T19:42:19.910Z,7.72
2018-10-21T19:44:48.473Z,7.66
2018-10-21T19:47:17.261Z,7.35
2018-10-21T19:49:47.083Z,7.29
2018-10-21T19:52:15.766Z,6.99
2018-10-21T19:54:46.442Z,7.20
2018-10-21T19:57:15.289Z,7.22
2018-10-21T19:59:44.829Z,7.19
2018-10-21T20:02:18.474Z,6.81
2018-10-21T20:04:47.089Z,6.57
2018-10-21T20:07:16.296Z,6.65
2018-10-21T20:09:45.494Z,6.94
2018-10-21T20:12:14.281Z,6.99
2018-10-21T20:14:42.864Z,7.03
2018-10-21T20:17:16.195Z,7.23
2018-10-21T20:19:45.277Z,7.63
2018-10-21T20:22:17.830Z,7.63
2018-10-21T20:24:46.392Z,7.65
2018-10-21T20:27:15.042Z,7.21
2018-10-21T20:29:44.898Z,6.81
2018-10-21T20:32:14.685Z,6.50
2018-10-21T20:34:44.301Z,6.62
2018-10-21T20:37:13.216Z,6.69
2018-10-21T20:39:41.798Z,6.90
2018-10-21T20:42:10.685Z,6.24
2018-10-21T20:44:39.260Z,6.20
2018-10-21T20:47:07.785Z,6.05
2018-10-21T20:49:36.365Z,6.00
2018-10-21T20:52:05.305Z,6.23
2018-10-21T20:54:39.112Z,6.43
2018-10-21T20:57:09.037Z,6.66
2018-10-21T20:59:38.673Z,6.96
2018-10-21T21:02:07.933Z,6.30
2018-10-21T21:04:36.678Z,6.59
2018-10-21T21:07:05.847Z,6.48
2018-10-21T21:09:35.415Z,5.91
2018-10-21T21:12:04.567Z,6.05
2018-10-21T21:14:33.473Z,6.26
2018-10-21T21:17:02.539Z,6.17
2018-10-21T21:19:31.108Z,6.41
2018-10-21T21:22:00.762Z,6.93
2018-10-21T21:24:29.345Z,6.82
2018-10-21T21:26:58.780Z,6.88
2018-10-21T21:29:27.297Z,6.68
2018-10-21T21:31:55.858Z,6.44
2018-10-21T21:34:24.398Z,6.43
2018-10-21T21:36:53.340Z,6.76
2018-10-21T21:39:21.901Z,6.45
2018-10-21T21:41:50.497Z,6.17
2018-10-21T21:44:19.329Z,6.06
2018-10-21T21:46:50.885Z,6.19
2018-10-21T21:49:19.469Z,6.28
2018-10-21T21:51:48.012Z,5.93
2018-10-21T21:54:16.670Z,5.59
2018-10-21T21:56:46.895Z,5.62
2018-10-21T21:59:15.665Z,5.62
2018-10-21T22:01:44.244Z,5.38
2018-10-21T22:04:12.841Z,5.39
2018-10-21T22:06:41.387Z,5.81
2018-10-21T22:09:12.072Z,6.21
2018-10-21T22:11:40.909Z,6.31
2018-10-21T22:14:10.278Z,6.40
2018-10-21T22:16:38.984Z,6.31
2018-10-21T22:19:08.370Z,6.41
2018-10-21T22:21:37.712Z,6.40
2018-10-21T22:24:07.048Z,6.54
2018-10-21T22:26:35.610Z,5.87
2018-10-21T22:29:04.155Z,6.03
2018-10-21T22:31:33.219Z,6.16
2018-10-21T22:34:02.191Z,6.43
2018-10-21T22:36:30.700Z,6.64
2018-10-21T22:38:59.241Z,6.16
2018-10-21T22:41:27.807Z,6.39
2018-10-21T22:43:56.323Z,6.46
2018-10-21T22:46:25.177Z,6.35
2018-10-21T22:48:53.735Z,6.15
2018-10-21T22:51:22.889Z,5.82
2018-10-21T22:53:51.389Z,6.12
2018-10-21T22:56:19.945Z,5.92
2018-10-21T22:58:48.464Z,6.20
2018-10-21T23:01:17.053Z,6.44
2018-10-21T23:03:45.572Z,6.65
2018-10-21T23:06:14.181Z,6.59
2018-10-21T23:08:42.672Z,6.63
2018-10-21T23:11:11.201Z,6.75
2018-10-21T23:13:39.764Z,6.74
2018-10-21T23:16:08.568Z,6.94
2018-10-21T23:18:37.168Z,6.53
2018-10-21T23:21:05.964Z,6.75
2018-10-21T23:23:34.524Z,6.15
2018-10-21T23:26:03.069Z,6.05
2018-10-21T23:28:31.668Z,6.22
2018-10-21T23:31:00.285Z,6.08
2018-10-21T23:33:28.831Z,5.51
2018-10-21T23:35:57.370Z,5.81
2018-10-21T23:38:25.941Z,5.93
2018-10-21T23:40:54.462Z,6.14
2018-10-21T23:43:23.000Z,6.24
2018-10-21T23:45:51.554Z,5.95
2018-10-21T23:48:20.548Z,6.32
2018-10-21T23:50:48.893Z,6.05
2018-10-21T23:53:17.432Z,5.81
2018-10-21T23:55:45.944Z,5.85
2018-10-21T23:58:14.547Z,5.77
